sensor_id;sensor_type;location;lat;lon;timestamp;P1;durP1;ratioP1;P2;durP2;ratioP2
3016;SDS011;1518;52.408;13.060;2023-04-01T00:02:25;2.35;;;1.10;;
3016;SDS011;1518;52.408;13.060;2023-04-01T00:05:13;1.25;;;1.15;;
3016;SDS011;1518;52.408;13.060;2023-04-01T00:08:02;1.10;;;1.00;;
3016;SDS011;1518;52.408;13.060;2023-04-01T00:10:51;1.27;;;1.17;;
3016;SDS011;1518;52.408;13.060;2023-04-01T00:13:40;1.38;;;1.27;;
3016;SDS011;1518;52.408;13.060;2023-04-01T00:16:29;0.90;;;0.90;;
3016;SDS011;1518;52.408;13.060;2023-04-01T00:19:18;1.30;;;1.10;;
3016;SDS011;1518;52.408;13.060;2023-04-01T00:22:06;1.88;;;1.20;;
3016;SDS011;1518;52.408;13.060;2023-04-01T00:24:57;1.15;;;0.80;;
3016;SDS011;1518;52.408;13.060;2023-04-01T00:27:46;1.60;;;1.48;;
3016;SDS011;1518;52.408;13.060;2023-04-01T00:30:35;1.20;;;1.10;;
3016;SDS011;1518;52.408;13.060;2023-04-01T00:33:24;1.20;;;1.05;;
3016;SDS011;1518;52.408;13.060;2023-04-01T00:36:14;1.27;;;1.00;;
3016;SDS011;1518;52.408;13.060;2023-04-01T00:39:04;1.30;;;1.10;;
3016;SDS011;1518;52.408;13.060;2023-04-01T00:41:52;1.10;;;1.00;;
3016;SDS011;1518;52.408;13.060;2023-04-01T00:44:40;1.10;;;1.00;;
3016;SDS011;1518;52.408;13.060;2023-04-01T00:47:30;1.20;;;1.10;;
3016;SDS011;1518;52.408;13.060;2023-04-01T00:50:19;1.10;;;1.10;;
3016;SDS011;1518;52.408;13.060;2023-04-01T00:53:10;1.20;;;1.10;;
3016;SDS011;1518;52.408;13.060;2023-04-01T00:56:00;1.48;;;1.05;;
3016;SDS011;1518;52.408;13.060;2023-04-01T00:58:54;2.17;;;1.30;;
3016;SDS011;1518;52.408;13.060;2023-04-01T01:01:46;2.35;;;1.10;;
3016;SDS011;1518;52.408;13.060;2023-04-01T01:04:34;1.08;;;0.98;;
3016;SDS011;1518;52.408;13.060;2023-04-01T01:07:25;3.58;;;0.93;;
3016;SDS011;1518;52.408;13.060;2023-04-01T01:10:19;1.25;;;1.00;;
3016;SDS011;1518;52.408;13.060;2023-04-01T01:13:11;1.13;;;1.08;;
3016;SDS011;1518;52.408;13.060;2023-04-01T01:16:06;0.93;;;0.93;;
3016;SDS011;1518;52.408;13.060;2023-04-01T01:19:05;1.00;;;0.90;;
3016;SDS011;1518;52.408;13.060;2023-04-01T01:22:11;1.13;;;0.90;;
3016;SDS011;1518;52.408;13.060;2023-04-01T01:25:17;1.98;;;1.17;;
3016;SDS011;1518;52.408;13.060;2023-04-01T01:28:24;1.20;;;1.10;;
3016;SDS011;1518;52.408;13.060;2023-04-01T01:31:22;1.00;;;0.90;;
3016;SDS011;1518;52.408;13.060;2023-04-01T01:34:17;1.23;;;1.02;;
3016;SDS011;1518;52.408;13.060;2023-04-01T01:37:12;0.90;;;0.90;;
3016;SDS011;1518;52.408;13.060;2023-04-01T01:40:03;1.60;;;0.90;;
3016;SDS011;1518;52.408;13.060;2023-04-01T01:42:55;1.33;;;1.23;;
3016;SDS011;1518;52.408;13.060;2023-04-01T01:45:47;1.10;;;1.00;;
3016;SDS011;1518;52.408;13.060;2023-04-01T01:48:38;1.23;;;0.93;;
3016;SDS011;1518;52.408;13.060;2023-04-01T01:51:28;2.25;;;1.10;;
3016;SDS011;1518;52.408;13.060;2023-04-01T01:54:18;1.23;;;1.10;;
3016;SDS011;1518;52.408;13.060;2023-04-01T01:57:07;0.80;;;0.80;;
3016;SDS011;1518;52.408;13.060;2023-04-01T01:59:58;2.22;;;1.30;;
3016;SDS011;1518;52.408;13.060;2023-04-01T02:02:50;0.90;;;0.90;;
3016;SDS011;1518;52.408;13.060;2023-04-01T02:05:38;0.80;;;0.80;;
3016;SDS011;1518;52.408;13.060;2023-04-01T02:08:28;2.05;;;0.90;;
3016;SDS011;1518;52.408;13.060;2023-04-01T02:11:22;2.63;;;1.00;;
3016;SDS011;1518;52.408;13.060;2023-04-01T02:14:15;1.83;;;0.80;;
3016;SDS011;1518;52.408;13.060;2023-04-01T02:17:05;2.15;;;0.82;;
3016;SDS011;1518;52.408;13.060;2023-04-01T02:19:56;1.23;;;1.13;;
3016;SDS011;1518;52.408;13.060;2023-04-01T02:22:47;1.80;;;1.30;;
3016;SDS011;1518;52.408;13.060;2023-04-01T02:25:37;1.10;;;1.10;;
3016;SDS011;1518;52.408;13.060;2023-04-01T02:28:28;1.17;;;0.90;;
3016;SDS011;1518;52.408;13.060;2023-04-01T02:31:18;1.47;;;0.80;;
3016;SDS011;1518;52.408;13.060;2023-04-01T02:34:06;2.00;;;1.03;;
3016;SDS011;1518;52.408;13.060;2023-04-01T02:36:54;1.00;;;1.00;;
3016;SDS011;1518;52.408;13.060;2023-04-01T02:39:44;0.90;;;0.80;;
3016;SDS011;1518;52.408;13.060;2023-04-01T02:42:32;2.45;;;1.13;;
3016;SDS011;1518;52.408;13.060;2023-04-01T02:45:22;1.00;;;0.90;;
3016;SDS011;1518;52.408;13.060;2023-04-01T02:48:10;1.27;;;1.10;;
3016;SDS011;1518;52.408;13.060;2023-04-01T02:50:59;2.28;;;0.90;;
3016;SDS011;1518;52.408;13.060;2023-04-01T02:53:47;1.70;;;0.90;;
3016;SDS011;1518;52.408;13.060;2023-04-01T02:56:35;2.50;;;1.00;;
3016;SDS011;1518;52.408;13.060;2023-04-01T02:59:23;1.73;;;1.10;;
3016;SDS011;1518;52.408;13.060;2023-04-01T03:02:12;1.67;;;1.20;;
3016;SDS011;1518;52.408;13.060;2023-04-01T03:05:01;0.80;;;0.80;;
3016;SDS011;1518;52.408;13.060;2023-04-01T03:07:49;3.05;;;1.10;;
3016;SDS011;1518;52.408;13.060;2023-04-01T03:10:37;2.70;;;1.37;;
3016;SDS011;1518;52.408;13.060;2023-04-01T03:13:25;1.90;;;0.80;;
3016;SDS011;1518;52.408;13.060;2023-04-01T03:16:13;1.30;;;0.97;;
3016;SDS011;1518;52.408;13.060;2023-04-01T03:19:03;1.67;;;1.00;;
3016;SDS011;1518;52.408;13.060;2023-04-01T03:21:51;2.03;;;0.90;;
3016;SDS011;1518;52.408;13.060;2023-04-01T03:24:39;1.53;;;0.93;;
3016;SDS011;1518;52.408;13.060;2023-04-01T03:27:27;1.30;;;0.90;;
3016;SDS011;1518;52.408;13.060;2023-04-01T03:30:15;1.40;;;0.88;;
3016;SDS011;1518;52.408;13.060;2023-04-01T03:33:04;1.10;;;0.90;;
3016;SDS011;1518;52.408;13.060;2023-04-01T03:35:53;3.38;;;1.00;;
3016;SDS011;1518;52.408;13.060;2023-04-01T03:38:42;1.13;;;0.90;;
3016;SDS011;1518;52.408;13.060;2023-04-01T03:41:30;1.20;;;0.90;;
3016;SDS011;1518;52.408;13.060;2023-04-01T03:44:19;1.17;;;1.08;;
3016;SDS011;1518;52.408;13.060;2023-04-01T03:47:07;3.47;;;0.90;;
3016;SDS011;1518;52.408;13.060;2023-04-01T03:49:56;1.20;;;0.90;;
3016;SDS011;1518;52.408;13.060;2023-04-01T03:52:45;1.15;;;1.02;;
3016;SDS011;1518;52.408;13.060;2023-04-01T03:55:35;1.00;;;0.73;;
3016;SDS011;1518;52.408;13.060;2023-04-01T03:58:23;3.35;;;1.10;;
3016;SDS011;1518;52.408;13.060;2023-04-01T04:01:15;2.23;;;0.93;;
3016;SDS011;1518;52.408;13.060;2023-04-01T04:04:04;2.65;;;1.40;;
3016;SDS011;1518;52.408;13.060;2023-04-01T04:06:53;1.00;;;0.90;;
3016;SDS011;1518;52.408;13.060;2023-04-01T04:09:43;1.30;;;0.98;;
3016;SDS011;1518;52.408;13.060;2023-04-01T04:12:31;1.33;;;1.02;;
3016;SDS011;1518;52.408;13.060;2023-04-01T04:15:19;2.47;;;1.10;;
3016;SDS011;1518;52.408;13.060;2023-04-01T04:18:07;2.20;;;1.00;;
3016;SDS011;1518;52.408;13.060;2023-04-01T04:20:55;1.98;;;0.90;;
3016;SDS011;1518;52.408;13.060;2023-04-01T04:23:43;1.00;;;0.93;;
3016;SDS011;1518;52.408;13.060;2023-04-01T04:26:33;1.92;;;0.80;;
3016;SDS011;1518;52.408;13.060;2023-04-01T04:29:21;1.92;;;0.88;;
3016;SDS011;1518;52.408;13.060;2023-04-01T04:32:09;1.30;;;1.20;;
3016;SDS011;1518;52.408;13.060;2023-04-01T04:34:57;2.78;;;1.10;;
3016;SDS011;1518;52.408;13.060;2023-04-01T04:37:45;1.80;;;1.20;;
3016;SDS011;1518;52.408;13.060;2023-04-01T04:40:35;0.70;;;0.70;;
3016;SDS011;1518;52.408;13.060;2023-04-01T04:43:25;1.35;;;1.10;;
3016;SDS011;1518;52.408;13.060;2023-04-01T04:46:13;4.72;;;1.25;;
3016;SDS011;1518;52.408;13.060;2023-04-01T04:49:01;1.77;;;0.90;;
3016;SDS011;1518;52.408;13.060;2023-04-01T04:51:49;0.70;;;0.70;;
3016;SDS011;1518;52.408;13.060;2023-04-01T04:54:37;1.05;;;0.85;;
3016;SDS011;1518;52.408;13.060;2023-04-01T04:57:25;1.52;;;0.90;;
3016;SDS011;1518;52.408;13.060;2023-04-01T05:00:15;1.65;;;0.77;;
3016;SDS011;1518;52.408;13.060;2023-04-01T05:03:03;3.63;;;1.15;;
3016;SDS011;1518;52.408;13.060;2023-04-01T05:05:52;1.85;;;0.80;;
3016;SDS011;1518;52.408;13.060;2023-04-01T05:08:42;1.38;;;1.02;;
3016;SDS011;1518;52.408;13.060;2023-04-01T05:11:31;2.08;;;1.20;;
3016;SDS011;1518;52.408;13.060;2023-04-01T05:14:19;2.35;;;0.90;;
3016;SDS011;1518;52.408;13.060;2023-04-01T05:17:09;1.30;;;0.90;;
3016;SDS011;1518;52.408;13.060;2023-04-01T05:19:57;2.05;;;1.00;;
3016;SDS011;1518;52.408;13.060;2023-04-01T05:22:46;1.05;;;0.93;;
3016;SDS011;1518;52.408;13.060;2023-04-01T05:25:37;2.15;;;0.80;;
3016;SDS011;1518;52.408;13.060;2023-04-01T05:28:25;1.23;;;0.80;;
3016;SDS011;1518;52.408;13.060;2023-04-01T05:31:13;2.58;;;1.08;;
3016;SDS011;1518;52.408;13.060;2023-04-01T05:34:02;1.52;;;0.90;;
3016;SDS011;1518;52.408;13.060;2023-04-01T05:36:50;1.58;;;0.95;;
3016;SDS011;1518;52.408;13.060;2023-04-01T05:39:39;1.55;;;0.93;;
3016;SDS011;1518;52.408;13.060;2023-04-01T05:42:28;2.17;;;1.00;;
3016;SDS011;1518;52.408;13.060;2023-04-01T05:45:16;1.35;;;0.90;;
3016;SDS011;1518;52.408;13.060;2023-04-01T05:48:04;1.20;;;1.00;;
3016;SDS011;1518;52.408;13.060;2023-04-01T05:50:54;1.67;;;1.05;;
3016;SDS011;1518;52.408;13.060;2023-04-01T05:53:42;3.47;;;1.10;;
3016;SDS011;1518;52.408;13.060;2023-04-01T05:56:30;5.35;;;1.48;;
3016;SDS011;1518;52.408;13.060;2023-04-01T05:59:18;1.23;;;0.90;;
3016;SDS011;1518;52.408;13.060;2023-04-01T06:02:07;1.35;;;1.20;;
3016;SDS011;1518;52.408;13.060;2023-04-01T06:05:00;1.52;;;1.00;;
3016;SDS011;1518;52.408;13.060;2023-04-01T06:07:59;1.42;;;0.95;;
3016;SDS011;1518;52.408;13.060;2023-04-01T06:10:55;1.60;;;1.10;;
3016;SDS011;1518;52.408;13.060;2023-04-01T06:13:56;1.65;;;1.10;;
3016;SDS011;1518;52.408;13.060;2023-04-01T06:16:59;1.10;;;0.90;;
3016;SDS011;1518;52.408;13.060;2023-04-01T06:19:54;2.17;;;1.20;;
3016;SDS011;1518;52.408;13.060;2023-04-01T06:22:55;1.17;;;0.90;;
3016;SDS011;1518;52.408;13.060;2023-04-01T06:26:05;1.63;;;0.90;;
3016;SDS011;1518;52.408;13.060;2023-04-01T06:29:17;1.42;;;1.10;;
3016;SDS011;1518;52.408;13.060;2023-04-01T06:32:27;1.48;;;0.90;;
3016;SDS011;1518;52.408;13.060;2023-04-01T06:35:36;1.92;;;1.00;;
3016;SDS011;1518;52.408;13.060;2023-04-01T06:38:51;1.37;;;1.00;;
3016;SDS011;1518;52.408;13.060;2023-04-01T06:42:02;1.80;;;1.00;;
3016;SDS011;1518;52.408;13.060;2023-04-01T06:45:06;3.40;;;1.08;;
3016;SDS011;1518;52.408;13.060;2023-04-01T06:48:04;1.10;;;0.83;;
3016;SDS011;1518;52.408;13.060;2023-04-01T06:51:09;0.93;;;0.80;;
3016;SDS011;1518;52.408;13.060;2023-04-01T06:54:09;0.80;;;0.77;;
3016;SDS011;1518;52.408;13.060;2023-04-01T06:57:00;1.53;;;0.90;;
3016;SDS011;1518;52.408;13.060;2023-04-01T06:59:53;0.90;;;0.88;;
3016;SDS011;1518;52.408;13.060;2023-04-01T07:02:45;1.13;;;0.97;;
3016;SDS011;1518;52.408;13.060;2023-04-01T07:05:40;1.60;;;1.30;;
3016;SDS011;1518;52.408;13.060;2023-04-01T07:08:31;2.03;;;1.10;;
3016;SDS011;1518;52.408;13.060;2023-04-01T07:11:26;1.55;;;1.00;;
3016;SDS011;1518;52.408;13.060;2023-04-01T07:14:18;2.53;;;1.20;;
3016;SDS011;1518;52.408;13.060;2023-04-01T07:17:11;2.03;;;1.27;;
3016;SDS011;1518;52.408;13.060;2023-04-01T07:20:03;1.65;;;1.08;;
3016;SDS011;1518;52.408;13.060;2023-04-01T07:23:02;1.25;;;0.80;;
3016;SDS011;1518;52.408;13.060;2023-04-01T07:25:54;1.02;;;0.95;;
3016;SDS011;1518;52.408;13.060;2023-04-01T07:28:47;2.63;;;0.93;;
3016;SDS011;1518;52.408;13.060;2023-04-01T07:35:10;1.35;;;0.88;;
3016;SDS011;1518;52.408;13.060;2023-04-01T07:38:09;1.00;;;0.70;;
3016;SDS011;1518;52.408;13.060;2023-04-01T07:41:04;2.20;;;1.27;;
3016;SDS011;1518;52.408;13.060;2023-04-01T07:44:03;1.30;;;1.20;;
3016;SDS011;1518;52.408;13.060;2023-04-01T07:47:08;0.83;;;0.83;;
3016;SDS011;1518;52.408;13.060;2023-04-01T07:50:17;1.57;;;1.20;;
3016;SDS011;1518;52.408;13.060;2023-04-01T07:53:14;0.90;;;0.90;;
3016;SDS011;1518;52.408;13.060;2023-04-01T07:56:08;0.85;;;0.70;;
3016;SDS011;1518;52.408;13.060;2023-04-01T07:59:00;3.10;;;1.17;;
3016;SDS011;1518;52.408;13.060;2023-04-01T08:01:54;1.10;;;0.88;;
3016;SDS011;1518;52.408;13.060;2023-04-01T08:04:53;1.08;;;0.98;;
3016;SDS011;1518;52.408;13.060;2023-04-01T08:07:49;1.05;;;0.80;;
3016;SDS011;1518;52.408;13.060;2023-04-01T08:10:46;1.50;;;0.70;;
3016;SDS011;1518;52.408;13.060;2023-04-01T08:13:40;1.00;;;0.90;;
3016;SDS011;1518;52.408;13.060;2023-04-01T08:16:37;1.37;;;0.80;;
3016;SDS011;1518;52.408;13.060;2023-04-01T08:19:33;3.78;;;0.90;;
3016;SDS011;1518;52.408;13.060;2023-04-01T08:22:39;2.00;;;0.80;;
3016;SDS011;1518;52.408;13.060;2023-04-01T08:25:29;2.25;;;1.08;;
3016;SDS011;1518;52.408;13.060;2023-04-01T08:28:21;1.77;;;1.33;;
3016;SDS011;1518;52.408;13.060;2023-04-01T08:31:14;1.40;;;0.70;;
3016;SDS011;1518;52.408;13.060;2023-04-01T08:34:10;2.55;;;1.00;;
3016;SDS011;1518;52.408;13.060;2023-04-01T08:37:05;1.13;;;0.90;;
3016;SDS011;1518;52.408;13.060;2023-04-01T08:39:58;2.10;;;0.90;;
3016;SDS011;1518;52.408;13.060;2023-04-01T08:42:55;1.23;;;0.85;;
3016;SDS011;1518;52.408;13.060;2023-04-01T08:46:13;1.48;;;1.10;;
3016;SDS011;1518;52.408;13.060;2023-04-01T08:49:21;1.38;;;1.13;;
3016;SDS011;1518;52.408;13.060;2023-04-01T08:52:33;0.95;;;0.90;;
3016;SDS011;1518;52.408;13.060;2023-04-01T08:55:26;1.70;;;0.70;;
3016;SDS011;1518;52.408;13.060;2023-04-01T08:58:27;0.93;;;0.80;;
3016;SDS011;1518;52.408;13.060;2023-04-01T09:01:36;1.37;;;1.27;;
3016;SDS011;1518;52.408;13.060;2023-04-01T09:04:41;0.85;;;0.80;;
3016;SDS011;1518;52.408;13.060;2023-04-01T09:07:49;2.45;;;0.90;;
3016;SDS011;1518;52.408;13.060;2023-04-01T09:10:55;1.25;;;1.15;;
3016;SDS011;1518;52.408;13.060;2023-04-01T09:13:55;3.85;;;0.88;;
3016;SDS011;1518;52.408;13.060;2023-04-01T09:17:05;2.17;;;1.00;;
3016;SDS011;1518;52.408;13.060;2023-04-01T09:20:18;0.98;;;0.80;;
3016;SDS011;1518;52.408;13.060;2023-04-01T09:23:24;1.92;;;1.00;;
3016;SDS011;1518;52.408;13.060;2023-04-01T09:26:28;1.33;;;0.90;;
3016;SDS011;1518;52.408;13.060;2023-04-01T09:29:35;1.00;;;1.00;;
3016;SDS011;1518;52.408;13.060;2023-04-01T09:36:18;0.70;;;0.70;;
3016;SDS011;1518;52.408;13.060;2023-04-01T09:39:18;0.80;;;0.75;;
3016;SDS011;1518;52.408;13.060;2023-04-01T09:42:41;1.38;;;0.80;;
3016;SDS011;1518;52.408;13.060;2023-04-01T09:45:37;2.05;;;0.90;;
3016;SDS011;1518;52.408;13.060;2023-04-01T09:48:36;1.63;;;0.88;;
3016;SDS011;1518;52.408;13.060;2023-04-01T09:51:57;2.85;;;0.90;;
3016;SDS011;1518;52.408;13.060;2023-04-01T09:55:10;3.15;;;0.90;;
3016;SDS011;1518;52.408;13.060;2023-04-01T10:02:00;1.08;;;0.75;;
3016;SDS011;1518;52.408;13.060;2023-04-01T10:05:27;2.63;;;1.05;;
3016;SDS011;1518;52.408;13.060;2023-04-01T10:08:52;0.93;;;0.93;;
3016;SDS011;1518;52.408;13.060;2023-04-01T10:12:11;2.38;;;0.90;;
3016;SDS011;1518;52.408;13.060;2023-04-01T10:15:22;1.73;;;1.00;;
3016;SDS011;1518;52.408;13.060;2023-04-01T10:18:29;1.47;;;0.90;;
3016;SDS011;1518;52.408;13.060;2023-04-01T10:21:41;2.20;;;1.00;;
3016;SDS011;1518;52.408;13.060;2023-04-01T10:25:03;1.23;;;0.90;;
3016;SDS011;1518;52.408;13.060;2023-04-01T10:35:10;1.38;;;1.27;;
3016;SDS011;1518;52.408;13.060;2023-04-01T10:38:42;1.63;;;1.53;;
3016;SDS011;1518;52.408;13.060;2023-04-01T10:42:20;1.70;;;1.60;;
3016;SDS011;1518;52.408;13.060;2023-04-01T10:48:45;2.83;;;1.65;;
3016;SDS011;1518;52.408;13.060;2023-04-01T10:55:22;3.83;;;2.80;;
3016;SDS011;1518;52.408;13.060;2023-04-01T11:01:47;1.98;;;1.88;;
3016;SDS011;1518;52.408;13.060;2023-04-01T11:05:11;1.83;;;1.70;;
3016;SDS011;1518;52.408;13.060;2023-04-01T11:12:08;2.08;;;1.90;;
3016;SDS011;1518;52.408;13.060;2023-04-01T11:15:44;2.78;;;2.17;;
3016;SDS011;1518;52.408;13.060;2023-04-01T11:25:34;1.83;;;1.67;;
3016;SDS011;1518;52.408;13.060;2023-04-01T11:32:04;2.22;;;2.03;;
3016;SDS011;1518;52.408;13.060;2023-04-01T11:35:03;2.00;;;1.80;;
3016;SDS011;1518;52.408;13.060;2023-04-01T11:38:13;1.80;;;1.70;;
3016;SDS011;1518;52.408;13.060;2023-04-01T11:41:12;2.63;;;2.42;;
3016;SDS011;1518;52.408;13.060;2023-04-01T11:44:12;3.45;;;2.70;;
3016;SDS011;1518;52.408;13.060;2023-04-01T11:47:13;3.03;;;2.83;;
3016;SDS011;1518;52.408;13.060;2023-04-01T11:50:18;2.83;;;2.33;;
3016;SDS011;1518;52.408;13.060;2023-04-01T11:53:16;3.43;;;2.43;;
3016;SDS011;1518;52.408;13.060;2023-04-01T11:56:13;2.30;;;2.10;;
3016;SDS011;1518;52.408;13.060;2023-04-01T12:02:39;1.90;;;1.80;;
3016;SDS011;1518;52.408;13.060;2023-04-01T12:05:37;2.55;;;2.30;;
3016;SDS011;1518;52.408;13.060;2023-04-01T12:08:37;3.33;;;3.03;;
3016;SDS011;1518;52.408;13.060;2023-04-01T12:11:34;2.88;;;2.67;;
3016;SDS011;1518;52.408;13.060;2023-04-01T12:14:33;2.53;;;2.33;;
3016;SDS011;1518;52.408;13.060;2023-04-01T12:17:32;2.60;;;2.40;;
3016;SDS011;1518;52.408;13.060;2023-04-01T12:20:35;2.28;;;2.17;;
3016;SDS011;1518;52.408;13.060;2023-04-01T12:23:45;2.63;;;2.42;;
3016;SDS011;1518;52.408;13.060;2023-04-01T12:27:12;2.70;;;2.50;;
3016;SDS011;1518;52.408;13.060;2023-04-01T12:30:26;2.42;;;2.22;;
3016;SDS011;1518;52.408;13.060;2023-04-01T12:33:27;3.10;;;2.90;;
3016;SDS011;1518;52.408;13.060;2023-04-01T12:36:37;2.67;;;2.28;;
3016;SDS011;1518;52.408;13.060;2023-04-01T12:39:47;2.90;;;2.70;;
3016;SDS011;1518;52.408;13.060;2023-04-01T12:42:58;2.90;;;2.70;;
3016;SDS011;1518;52.408;13.060;2023-04-01T12:45:54;2.25;;;2.15;;
3016;SDS011;1518;52.408;13.060;2023-04-01T12:49:04;3.17;;;2.93;;
3016;SDS011;1518;52.408;13.060;2023-04-01T12:52:09;2.58;;;2.30;;
3016;SDS011;1518;52.408;13.060;2023-04-01T12:55:14;3.53;;;3.23;;
3016;SDS011;1518;52.408;13.060;2023-04-01T12:58:19;2.65;;;2.55;;
3016;SDS011;1518;52.408;13.060;2023-04-01T13:01:27;3.13;;;2.93;;
3016;SDS011;1518;52.408;13.060;2023-04-01T13:04:47;2.78;;;2.58;;
3016;SDS011;1518;52.408;13.060;2023-04-01T13:08:13;3.42;;;3.15;;
3016;SDS011;1518;52.408;13.060;2023-04-01T13:11:13;3.20;;;3.00;;
3016;SDS011;1518;52.408;13.060;2023-04-01T13:14:14;4.00;;;3.70;;
3016;SDS011;1518;52.408;13.060;2023-04-01T13:17:18;3.10;;;2.90;;
3016;SDS011;1518;52.408;13.060;2023-04-01T13:20:14;3.80;;;3.47;;
3016;SDS011;1518;52.408;13.060;2023-04-01T13:23:10;3.10;;;2.90;;
3016;SDS011;1518;52.408;13.060;2023-04-01T13:26:12;3.43;;;3.20;;
3016;SDS011;1518;52.408;13.060;2023-04-01T13:29:06;3.20;;;3.00;;
3016;SDS011;1518;52.408;13.060;2023-04-01T13:32:06;3.60;;;3.30;;
3016;SDS011;1518;52.408;13.060;2023-04-01T13:35:22;3.45;;;3.25;;
3016;SDS011;1518;52.408;13.060;2023-04-01T13:41:33;3.27;;;2.97;;
3016;SDS011;1518;52.408;13.060;2023-04-01T13:44:34;3.10;;;2.90;;
3016;SDS011;1518;52.408;13.060;2023-04-01T13:47:30;3.10;;;2.90;;
3016;SDS011;1518;52.408;13.060;2023-04-01T13:50:41;3.30;;;3.05;;
3016;SDS011;1518;52.408;13.060;2023-04-01T13:53:44;3.20;;;3.00;;
3016;SDS011;1518;52.408;13.060;2023-04-01T13:56:50;3.57;;;3.27;;
3016;SDS011;1518;52.408;13.060;2023-04-01T13:59:49;3.10;;;2.90;;
3016;SDS011;1518;52.408;13.060;2023-04-01T14:03:05;3.80;;;3.37;;
3016;SDS011;1518;52.408;13.060;2023-04-01T14:06:14;3.45;;;3.25;;
3016;SDS011;1518;52.408;13.060;2023-04-01T14:09:15;3.20;;;3.00;;
3016;SDS011;1518;52.408;13.060;2023-04-01T14:12:28;3.47;;;3.27;;
3016;SDS011;1518;52.408;13.060;2023-04-01T14:15:23;3.30;;;3.10;;
3016;SDS011;1518;52.408;13.060;2023-04-01T14:21:49;3.53;;;3.22;;
3016;SDS011;1518;52.408;13.060;2023-04-01T14:24:45;3.70;;;3.40;;
3016;SDS011;1518;52.408;13.060;2023-04-01T14:27:48;3.38;;;3.17;;
3016;SDS011;1518;52.408;13.060;2023-04-01T14:34:02;3.60;;;3.30;;
3016;SDS011;1518;52.408;13.060;2023-04-01T14:40:19;3.37;;;3.07;;
3016;SDS011;1518;52.408;13.060;2023-04-01T14:43:19;3.90;;;3.60;;
3016;SDS011;1518;52.408;13.060;2023-04-01T14:46:28;3.28;;;3.08;;
3016;SDS011;1518;52.408;13.060;2023-04-01T14:49:36;2.60;;;2.50;;
3016;SDS011;1518;52.408;13.060;2023-04-01T14:52:28;2.95;;;2.72;;
3016;SDS011;1518;52.408;13.060;2023-04-01T14:55:23;3.23;;;3.03;;
3016;SDS011;1518;52.408;13.060;2023-04-01T14:58:20;3.07;;;2.87;;
3016;SDS011;1518;52.408;13.060;2023-04-01T15:01:18;2.65;;;2.55;;
3016;SDS011;1518;52.408;13.060;2023-04-01T15:04:33;2.90;;;2.70;;
3016;SDS011;1518;52.408;13.060;2023-04-01T15:11:10;2.27;;;2.07;;
3016;SDS011;1518;52.408;13.060;2023-04-01T15:14:16;3.17;;;2.87;;
3016;SDS011;1518;52.408;13.060;2023-04-01T15:17:16;2.90;;;2.70;;
3016;SDS011;1518;52.408;13.060;2023-04-01T15:20:28;2.63;;;2.43;;
3016;SDS011;1518;52.408;13.060;2023-04-01T15:23:27;2.40;;;2.30;;
3016;SDS011;1518;52.408;13.060;2023-04-01T15:26:33;2.37;;;2.27;;
3016;SDS011;1518;52.408;13.060;2023-04-01T15:29:40;4.97;;;3.50;;
3016;SDS011;1518;52.408;13.060;2023-04-01T15:32:44;3.83;;;3.60;;
3016;SDS011;1518;52.408;13.060;2023-04-01T15:35:41;3.80;;;3.50;;
3016;SDS011;1518;52.408;13.060;2023-04-01T15:38:38;2.88;;;2.67;;
3016;SDS011;1518;52.408;13.060;2023-04-01T15:41:35;2.83;;;2.60;;
3016;SDS011;1518;52.408;13.060;2023-04-01T15:44:38;2.90;;;2.70;;
3016;SDS011;1518;52.408;13.060;2023-04-01T15:47:41;3.07;;;2.20;;
3016;SDS011;1518;52.408;13.060;2023-04-01T15:50:40;2.30;;;2.20;;
3016;SDS011;1518;52.408;13.060;2023-04-01T15:53:40;2.63;;;2.42;;
3016;SDS011;1518;52.408;13.060;2023-04-01T15:56:42;5.50;;;2.47;;
3016;SDS011;1518;52.408;13.060;2023-04-01T15:59:53;3.40;;;3.20;;
3016;SDS011;1518;52.408;13.060;2023-04-01T16:03:09;3.00;;;2.80;;
3016;SDS011;1518;52.408;13.060;2023-04-01T16:06:11;2.87;;;2.67;;
3016;SDS011;1518;52.408;13.060;2023-04-01T16:09:13;2.50;;;2.30;;
3016;SDS011;1518;52.408;13.060;2023-04-01T16:12:15;2.73;;;2.53;;
3016;SDS011;1518;52.408;13.060;2023-04-01T16:15:08;2.37;;;2.27;;
3016;SDS011;1518;52.408;13.060;2023-04-01T16:18:19;2.93;;;2.73;;
3016;SDS011;1518;52.408;13.060;2023-04-01T16:21:24;2.80;;;2.60;;
3016;SDS011;1518;52.408;13.060;2023-04-01T16:24:30;2.83;;;2.63;;
3016;SDS011;1518;52.408;13.060;2023-04-01T16:27:24;2.77;;;2.57;;
3016;SDS011;1518;52.408;13.060;2023-04-01T16:30:25;3.13;;;2.93;;
3016;SDS011;1518;52.408;13.060;2023-04-01T16:33:21;2.50;;;2.30;;
3016;SDS011;1518;52.408;13.060;2023-04-01T16:36:20;2.90;;;2.40;;
3016;SDS011;1518;52.408;13.060;2023-04-01T16:39:22;2.90;;;2.70;;
3016;SDS011;1518;52.408;13.060;2023-04-01T16:42:20;2.40;;;2.20;;
3016;SDS011;1518;52.408;13.060;2023-04-01T16:45:17;2.93;;;2.73;;
3016;SDS011;1518;52.408;13.060;2023-04-01T16:48:11;2.57;;;2.47;;
3016;SDS011;1518;52.408;13.060;2023-04-01T16:51:02;2.80;;;2.60;;
3016;SDS011;1518;52.408;13.060;2023-04-01T16:54:01;2.58;;;2.38;;
3016;SDS011;1518;52.408;13.060;2023-04-01T16:56:55;2.87;;;2.67;;
3016;SDS011;1518;52.408;13.060;2023-04-01T16:59:54;2.57;;;2.37;;
3016;SDS011;1518;52.408;13.060;2023-04-01T17:02:49;2.60;;;2.40;;
3016;SDS011;1518;52.408;13.060;2023-04-01T17:05:49;2.13;;;2.03;;
3016;SDS011;1518;52.408;13.060;2023-04-01T17:08:56;3.23;;;2.53;;
3016;SDS011;1518;52.408;13.060;2023-04-01T17:11:59;2.83;;;2.63;;
3016;SDS011;1518;52.408;13.060;2023-04-01T17:14:54;2.50;;;2.30;;
3016;SDS011;1518;52.408;13.060;2023-04-01T17:17:51;4.13;;;2.17;;
3016;SDS011;1518;52.408;13.060;2023-04-01T17:20:48;2.40;;;2.20;;
3016;SDS011;1518;52.408;13.060;2023-04-01T17:23:42;2.20;;;2.10;;
3016;SDS011;1518;52.408;13.060;2023-04-01T17:26:36;2.50;;;2.40;;
3016;SDS011;1518;52.408;13.060;2023-04-01T17:29:30;3.10;;;2.37;;
3016;SDS011;1518;52.408;13.060;2023-04-01T17:32:45;2.37;;;2.17;;
3016;SDS011;1518;52.408;13.060;2023-04-01T17:35:49;2.30;;;2.20;;
3016;SDS011;1518;52.408;13.060;2023-04-01T17:38:54;2.23;;;2.00;;
3016;SDS011;1518;52.408;13.060;2023-04-01T17:41:53;2.90;;;2.70;;
3016;SDS011;1518;52.408;13.060;2023-04-01T17:44:49;2.20;;;2.07;;
3016;SDS011;1518;52.408;13.060;2023-04-01T17:47:49;4.07;;;2.70;;
3016;SDS011;1518;52.408;13.060;2023-04-01T17:50:49;2.00;;;1.90;;
3016;SDS011;1518;52.408;13.060;2023-04-01T17:53:44;2.30;;;2.10;;
3016;SDS011;1518;52.408;13.060;2023-04-01T17:56:42;2.30;;;2.10;;
3016;SDS011;1518;52.408;13.060;2023-04-01T17:59:44;2.17;;;2.07;;
3016;SDS011;1518;52.408;13.060;2023-04-01T18:02:42;1.80;;;1.70;;
3016;SDS011;1518;52.408;13.060;2023-04-01T18:05:40;2.10;;;2.00;;
3016;SDS011;1518;52.408;13.060;2023-04-01T18:08:41;1.60;;;1.50;;
3016;SDS011;1518;52.408;13.060;2023-04-01T18:11:43;1.90;;;1.80;;
3016;SDS011;1518;52.408;13.060;2023-04-01T18:14:51;2.30;;;2.00;;
3016;SDS011;1518;52.408;13.060;2023-04-01T18:18:10;2.07;;;1.97;;
3016;SDS011;1518;52.408;13.060;2023-04-01T18:21:16;1.83;;;1.73;;
3016;SDS011;1518;52.408;13.060;2023-04-01T18:24:14;2.40;;;2.20;;
3016;SDS011;1518;52.408;13.060;2023-04-01T18:27:11;1.90;;;1.80;;
3016;SDS011;1518;52.408;13.060;2023-04-01T18:30:07;2.13;;;2.03;;
3016;SDS011;1518;52.408;13.060;2023-04-01T18:33:01;2.67;;;2.47;;
3016;SDS011;1518;52.408;13.060;2023-04-01T18:35:58;2.33;;;2.10;;
3016;SDS011;1518;52.408;13.060;2023-04-01T18:39:00;1.90;;;1.80;;
3016;SDS011;1518;52.408;13.060;2023-04-01T18:41:53;2.23;;;2.03;;
3016;SDS011;1518;52.408;13.060;2023-04-01T18:44:53;1.90;;;1.80;;
3016;SDS011;1518;52.408;13.060;2023-04-01T18:47:47;2.20;;;2.00;;
3016;SDS011;1518;52.408;13.060;2023-04-01T18:50:43;2.23;;;2.07;;
3016;SDS011;1518;52.408;13.060;2023-04-01T18:53:39;2.00;;;1.90;;
3016;SDS011;1518;52.408;13.060;2023-04-01T18:56:33;2.07;;;1.87;;
3016;SDS011;1518;52.408;13.060;2023-04-01T18:59:25;3.03;;;2.40;;
3016;SDS011;1518;52.408;13.060;2023-04-01T19:02:19;1.87;;;1.77;;
3016;SDS011;1518;52.408;13.060;2023-04-01T19:05:16;2.63;;;2.00;;
3016;SDS011;1518;52.408;13.060;2023-04-01T19:08:24;2.17;;;2.07;;
3016;SDS011;1518;52.408;13.060;2023-04-01T19:11:17;1.97;;;1.87;;